Weather at Las Lomas Airport

Public forecast

Using degrees Celsius for public forecast. Weather courtesy of forecast.io.

Closest aviation weather report (METAR) to Las Lomas Airport

Closest report is Tobias Bolanos International Airport, 33.6 nm (62.1 km) WSW. Retrieved 2020/12/06 00:00 UTC (11 minutes ago):

MRPV 060000Z 11008KT 9999 FEW035 22/15 A3002 NOSIG

Closest aviation forecast (TAF) to Las Lomas Airport

Closest forecast is Tobias Bolanos International Airport, 33.6 nm (62.1 km) WSW. Retrieved 2020-12-06 00:03 UTC (8 minutes ago):

TAF MRPV 052300Z 0600/0624 08010KT 9999 FEW030 TX27/0618Z TN18/0610Z